createdAt,value
2018-09-20T00:00:26.362Z,52.11
2018-09-20T00:02:54.033Z,51.80
2018-09-20T00:05:21.757Z,52.33
2018-09-20T00:07:49.988Z,52.42
2018-09-20T00:10:18.238Z,52.04
2018-09-20T00:12:46.576Z,52.74
2018-09-20T00:15:14.807Z,52.06
2018-09-20T00:17:43.125Z,52.72
2018-09-20T00:20:11.598Z,51.98
2018-09-20T00:22:39.546Z,52.26
2018-09-20T00:25:07.551Z,52.90
2018-09-20T00:27:35.535Z,52.80
2018-09-20T00:30:03.209Z,52.57
2018-09-20T00:32:30.897Z,52.41
2018-09-20T00:34:58.842Z,52.51
2018-09-20T00:37:26.777Z,52.74
2018-09-20T00:39:54.465Z,53.10
2018-09-20T00:42:22.127Z,53.39
2018-09-20T00:44:50.134Z,52.94
2018-09-20T00:47:18.068Z,52.76
2018-09-20T00:49:46.199Z,53.04
2018-09-20T00:52:14.494Z,53.04
2018-09-20T00:54:42.509Z,53.61
2018-09-20T00:57:10.361Z,53.63
2018-09-20T00:59:38.357Z,53.12
2018-09-20T01:02:06.304Z,53.13
2018-09-20T01:04:34.387Z,53.51
2018-09-20T01:07:02.574Z,52.98
2018-09-20T01:09:30.205Z,52.86
2018-09-20T01:11:57.897Z,52.88
2018-09-20T01:14:25.866Z,53.09
2018-09-20T01:16:53.494Z,53.23
2018-09-20T01:19:21.109Z,54.02
2018-09-20T01:21:49.937Z,53.97
2018-09-20T01:24:17.657Z,53.95
2018-09-20T01:26:45.300Z,53.28
2018-09-20T01:29:13.010Z,53.29
2018-09-20T01:31:40.661Z,54.13
2018-09-20T01:34:08.336Z,53.74
2018-09-20T01:36:35.984Z,54.21
2018-09-20T01:39:08.314Z,53.78
2018-09-20T01:41:35.954Z,54.06
2018-09-20T01:44:03.848Z,53.90
2018-09-20T01:46:31.545Z,53.71
2018-09-20T01:48:59.206Z,53.43
2018-09-20T01:51:26.925Z,54.04
2018-09-20T01:53:54.538Z,54.38
2018-09-20T01:56:22.261Z,54.29
2018-09-20T01:58:49.924Z,53.60
2018-09-20T02:01:18.119Z,53.57
2018-09-20T02:03:46.206Z,53.69
2018-09-20T02:06:13.846Z,53.67
2018-09-20T02:08:42.145Z,53.67
2018-09-20T02:11:10.387Z,54.40
2018-09-20T02:13:38.017Z,54.50
2018-09-20T02:16:05.884Z,54.32
2018-09-20T02:18:33.529Z,54.36
2018-09-20T02:21:01.595Z,54.33
2018-09-20T02:23:29.923Z,54.16
2018-09-20T02:25:57.908Z,53.67
2018-09-20T02:28:25.856Z,54.53
2018-09-20T02:30:53.532Z,54.78
2018-09-20T02:33:21.222Z,54.12
2018-09-20T02:35:48.850Z,54.30
2018-09-20T02:38:16.838Z,54.91
2018-09-20T02:40:44.435Z,54.34
2018-09-20T02:43:12.127Z,54.63
2018-09-20T02:45:39.814Z,54.27
2018-09-20T02:48:07.835Z,53.87
2018-09-20T02:50:35.764Z,54.17
2018-09-20T02:53:03.717Z,54.45
2018-09-20T02:55:34.755Z,54.38
2018-09-20T02:58:02.425Z,55.07
2018-09-20T03:00:30.080Z,55.05
2018-09-20T03:02:57.725Z,54.61
2018-09-20T03:05:25.381Z,54.43
2018-09-20T03:07:54.013Z,54.44
2018-09-20T03:10:21.631Z,55.19
2018-09-20T03:12:49.306Z,54.98
2018-09-20T03:15:16.992Z,54.86
2018-09-20T03:17:44.666Z,55.35
2018-09-20T03:20:12.839Z,55.46
2018-09-20T03:22:40.645Z,55.52
2018-09-20T03:25:08.674Z,55.10
2018-09-20T03:27:36.374Z,54.99
2018-09-20T03:30:04.392Z,55.33
2018-09-20T03:32:32.046Z,54.94
2018-09-20T03:34:59.775Z,55.89
2018-09-20T03:37:29.830Z,55.88
2018-09-20T03:39:57.545Z,55.96
2018-09-20T03:42:25.202Z,55.37
2018-09-20T03:44:52.843Z,55.92
2018-09-20T03:47:21.105Z,55.89
2018-09-20T03:49:48.834Z,55.99
2018-09-20T03:52:16.826Z,55.64
2018-09-20T03:54:44.481Z,56.10
2018-09-20T03:57:12.390Z,55.90
2018-09-20T03:59:40.057Z,55.57
2018-09-20T04:02:08.100Z,56.00
2018-09-20T04:04:36.377Z,55.80
2018-09-20T04:07:04.027Z,55.10
2018-09-20T04:09:32.148Z,55.14
2018-09-20T04:11:59.830Z,54.98
2018-09-20T04:14:27.500Z,55.29
2018-09-20T04:16:55.446Z,55.14
2018-09-20T04:19:23.194Z,54.89
2018-09-20T04:21:50.857Z,54.87
2018-09-20T04:24:18.658Z,55.70
2018-09-20T04:26:46.378Z,55.80
2018-09-20T04:29:14.811Z,54.85
2018-09-20T04:31:43.760Z,54.89
2018-09-20T04:34:11.751Z,54.77
2018-09-20T04:36:39.485Z,55.25
2018-09-20T04:39:08.725Z,54.47
2018-09-20T04:41:36.436Z,54.46
2018-09-20T04:44:04.134Z,54.42
2018-09-20T04:46:31.814Z,55.17
2018-09-20T04:48:59.828Z,55.11
2018-09-20T04:51:27.813Z,54.65
2018-09-20T04:53:56.400Z,54.24
2018-09-20T04:56:24.399Z,54.26
2018-09-20T04:58:52.266Z,54.94
2018-09-20T05:01:19.891Z,54.81
2018-09-20T05:03:47.625Z,54.09
2018-09-20T05:06:15.567Z,54.30
2018-09-20T05:08:43.843Z,54.20
2018-09-20T05:11:11.823Z,54.78
2018-09-20T05:13:39.800Z,54.21
2018-09-20T05:16:07.645Z,54.68
2018-09-20T05:18:35.255Z,54.09
2018-09-20T05:21:03.185Z,54.64
2018-09-20T05:23:31.369Z,55.13
2018-09-20T05:25:59.236Z,55.29
2018-09-20T05:28:26.865Z,55.31
2018-09-20T05:30:55.580Z,55.16
2018-09-20T05:33:23.510Z,54.51
2018-09-20T05:35:51.993Z,55.14
2018-09-20T05:38:20.615Z,54.70
2018-09-20T05:40:49.300Z,54.41
2018-09-20T05:43:18.205Z,55.47
2018-09-20T05:45:46.177Z,54.85
2018-09-20T05:48:14.647Z,55.11
2018-09-20T05:50:43.168Z,54.82
2018-09-20T05:53:11.848Z,54.73
2018-09-20T05:55:39.627Z,55.43
2018-09-20T05:58:07.771Z,55.39
2018-09-20T06:00:37.386Z,55.08
2018-09-20T06:03:05.778Z,55.04
2018-09-20T06:05:34.197Z,54.57
2018-09-20T06:08:02.025Z,54.38
2018-09-20T06:10:29.929Z,54.57
2018-09-20T06:12:57.853Z,54.56
2018-09-20T06:15:25.536Z,54.47
2018-09-20T06:17:53.180Z,55.06
2018-09-20T06:20:20.821Z,55.09
2018-09-20T06:22:48.482Z,54.30
2018-09-20T06:25:16.713Z,54.65
2018-09-20T06:27:44.413Z,54.75
2018-09-20T06:30:12.057Z,54.83
2018-09-20T06:32:39.943Z,54.45
2018-09-20T06:35:07.879Z,54.61
2018-09-20T06:37:35.950Z,53.88
2018-09-20T06:40:03.670Z,54.55
2018-09-20T06:42:31.579Z,53.81
2018-09-20T06:44:59.519Z,54.06
2018-09-20T06:47:27.199Z,54.30
2018-09-20T06:49:54.868Z,54.19
2018-09-20T06:52:22.867Z,53.84
2018-09-20T06:54:50.551Z,53.87
2018-09-20T06:57:18.325Z,54.04
2018-09-20T06:59:46.043Z,54.54
2018-09-20T07:02:13.934Z,54.24
2018-09-20T07:04:41.965Z,53.87
2018-09-20T07:07:09.891Z,54.13
2018-09-20T07:09:37.699Z,53.70
2018-09-20T07:12:05.426Z,53.70
2018-09-20T07:14:33.048Z,53.82
2018-09-20T07:17:01.429Z,54.15
2018-09-20T07:19:29.226Z,53.92
2018-09-20T07:21:56.873Z,54.38
2018-09-20T07:24:24.585Z,53.58
2018-09-20T07:26:52.329Z,53.57
2018-09-20T07:29:20.320Z,53.74
2018-09-20T07:31:48.273Z,54.41
2018-09-20T07:34:16.184Z,54.11
2018-09-20T07:36:43.917Z,53.67
2018-09-20T07:39:11.589Z,53.84
2018-09-20T07:41:39.979Z,54.42
2018-09-20T07:44:08.501Z,54.38
2018-09-20T07:46:36.180Z,53.54
2018-09-20T07:49:03.830Z,53.55
2018-09-20T07:51:31.513Z,54.37
2018-09-20T07:53:59.455Z,54.36
2018-09-20T07:56:27.127Z,53.68
2018-09-20T07:58:54.803Z,53.67
2018-09-20T08:01:22.506Z,53.76
2018-09-20T08:03:50.149Z,53.58
2018-09-20T08:06:17.909Z,53.92
2018-09-20T08:08:45.856Z,53.84
2018-09-20T08:11:13.755Z,53.26
2018-09-20T08:13:41.394Z,54.00
2018-09-20T08:16:09.143Z,53.48
2018-09-20T08:18:36.848Z,53.21
2018-09-20T08:21:04.469Z,53.93
2018-09-20T08:23:32.257Z,53.93
2018-09-20T08:26:00.306Z,54.03
2018-09-20T08:28:28.616Z,53.03
2018-09-20T08:30:56.678Z,53.42
2018-09-20T08:33:24.686Z,53.72
2018-09-20T08:35:52.294Z,53.22
2018-09-20T08:38:20.270Z,53.52
2018-09-20T08:40:47.926Z,53.00
2018-09-20T08:43:15.889Z,53.34
2018-09-20T08:45:43.609Z,53.12
2018-09-20T08:48:11.542Z,53.08
2018-09-20T08:50:39.192Z,52.76
2018-09-20T08:53:07.229Z,52.43
2018-09-20T08:55:35.248Z,52.27
2018-09-20T08:58:03.128Z,53.01
2018-09-20T09:00:30.824Z,52.16
2018-09-20T09:02:58.660Z,52.64
2018-09-20T09:05:26.319Z,52.49
2018-09-20T09:07:54.006Z,52.00
2018-09-20T09:10:21.678Z,52.27
2018-09-20T09:12:49.334Z,52.04
2018-09-20T09:15:17.294Z,52.08
2018-09-20T09:17:44.953Z,52.78
2018-09-20T09:20:12.580Z,52.74
2018-09-20T09:22:40.266Z,52.29
2018-09-20T09:25:07.874Z,51.89
2018-09-20T09:27:36.429Z,51.94
2018-09-20T09:30:04.493Z,51.82
2018-09-20T09:32:32.146Z,51.96
2018-09-20T09:35:00.101Z,51.66
2018-09-20T09:37:27.808Z,52.04
2018-09-20T09:39:55.537Z,51.77
2018-09-20T09:42:23.177Z,51.68
2018-09-20T09:44:51.124Z,51.50
2018-09-20T09:47:18.766Z,51.10
2018-09-20T09:49:46.461Z,51.67
2018-09-20T09:52:14.226Z,50.99
2018-09-20T09:54:41.920Z,50.53
2018-09-20T09:57:09.558Z,50.46
2018-09-20T09:59:37.703Z,51.23
2018-09-20T10:02:05.716Z,50.52
2018-09-20T10:04:33.393Z,51.12
2018-09-20T10:07:01.216Z,51.07
2018-09-20T10:09:29.156Z,50.58
2018-09-20T10:11:57.048Z,51.29
2018-09-20T10:14:24.871Z,50.96
2018-09-20T10:16:52.501Z,50.91
2018-09-20T10:19:20.693Z,50.91
2018-09-20T10:21:48.354Z,50.75
2018-09-20T10:24:16.009Z,51.36
2018-09-20T10:26:43.644Z,51.47
2018-09-20T10:29:11.476Z,51.29
2018-09-20T10:31:39.161Z,51.18
2018-09-20T10:34:07.242Z,51.36
2018-09-20T10:36:34.981Z,50.86
2018-09-20T10:39:03.764Z,51.52
2018-09-20T10:41:31.684Z,50.69
2018-09-20T10:43:59.607Z,50.96
2018-09-20T10:46:27.599Z,50.84
2018-09-20T10:48:57.615Z,51.25
2018-09-20T10:51:25.963Z,51.12
2018-09-20T10:53:53.572Z,51.12
2018-09-20T10:56:21.213Z,51.73
2018-09-20T10:58:51.942Z,51.10
2018-09-20T11:01:19.597Z,50.93
2018-09-20T11:03:47.587Z,51.87
2018-09-20T11:06:15.200Z,51.30
2018-09-20T11:08:42.948Z,51.83
2018-09-20T11:11:11.119Z,51.04
2018-09-20T11:13:39.367Z,51.76
2018-09-20T11:16:07.048Z,51.03
2018-09-20T11:18:34.855Z,51.11
2018-09-20T11:21:02.546Z,51.77
2018-09-20T11:23:30.202Z,51.12
2018-09-20T11:25:57.985Z,51.04
2018-09-20T11:28:25.611Z,51.57
2018-09-20T11:30:53.381Z,51.22
2018-09-20T11:33:21.037Z,51.24
2018-09-20T11:35:48.680Z,51.12
2018-09-20T11:38:16.514Z,51.48
2018-09-20T11:40:44.489Z,51.72
2018-09-20T11:43:12.543Z,51.92
2018-09-20T11:45:40.411Z,51.15
2018-09-20T11:48:08.266Z,51.02
2018-09-20T11:50:36.264Z,51.71
2018-09-20T11:53:03.890Z,51.43
2018-09-20T11:55:31.533Z,50.63
2018-09-20T11:57:59.538Z,51.39
2018-09-20T12:00:27.496Z,51.09
2018-09-20T12:02:55.158Z,51.42
2018-09-20T12:05:23.323Z,51.29
2018-09-20T12:07:51.330Z,50.77
2018-09-20T12:10:19.381Z,51.01
2018-09-20T12:12:47.421Z,51.72
2018-09-20T12:15:15.061Z,51.79
2018-09-20T12:17:43.004Z,51.99
2018-09-20T12:20:10.616Z,51.49
2018-09-20T12:22:39.333Z,50.53
2018-09-20T12:25:07.008Z,50.51
2018-09-20T12:27:34.734Z,51.16
2018-09-20T12:30:03.097Z,50.40
2018-09-20T12:32:30.799Z,51.00
2018-09-20T12:34:58.708Z,50.36
2018-09-20T12:37:32.008Z,49.94
2018-09-20T12:40:00.007Z,50.62
2018-09-20T12:42:27.689Z,50.18
2018-09-20T12:44:55.692Z,50.06
2018-09-20T12:47:23.629Z,50.57
2018-09-20T12:49:51.296Z,50.33
2018-09-20T12:52:19.086Z,50.13
2018-09-20T12:54:46.861Z,50.48
2018-09-20T12:57:14.526Z,50.94
2018-09-20T12:59:42.416Z,50.14
2018-09-20T13:02:10.142Z,50.99
2018-09-20T13:04:38.124Z,50.27
2018-09-20T13:07:06.102Z,50.70
2018-09-20T13:09:34.236Z,49.98
2018-09-20T13:12:02.166Z,50.15
2018-09-20T13:14:30.045Z,49.57
2018-09-20T13:16:57.915Z,49.55
2018-09-20T13:19:25.604Z,49.64
2018-09-20T13:21:53.261Z,49.06
2018-09-20T13:24:21.233Z,49.62
2018-09-20T13:26:48.922Z,48.91
2018-09-20T13:29:16.569Z,49.03
2018-09-20T13:31:44.345Z,49.84
2018-09-20T13:34:12.220Z,48.76
2018-09-20T13:36:39.950Z,49.68
2018-09-20T13:39:10.191Z,49.10
2018-09-20T13:41:38.205Z,48.58
2018-09-20T13:44:05.866Z,48.42
2018-09-20T13:46:33.812Z,49.28
2018-09-20T13:49:01.732Z,48.66
2018-09-20T13:51:29.763Z,49.32
2018-09-20T13:53:57.473Z,49.02
2018-09-20T13:56:25.159Z,48.50
2018-09-20T13:58:52.981Z,48.60
2018-09-20T14:01:20.662Z,48.47
2018-09-20T14:03:48.291Z,48.25
2018-09-20T14:06:16.189Z,48.70
2018-09-20T14:08:44.294Z,47.84
2018-09-20T14:11:12.094Z,47.26
2018-09-20T14:13:39.704Z,47.60
2018-09-20T14:16:07.410Z,47.16
2018-09-20T14:18:35.364Z,46.37
2018-09-20T14:21:03.095Z,45.66
2018-09-20T14:23:30.748Z,46.51
2018-09-20T14:25:59.031Z,45.98
2018-09-20T14:28:26.951Z,47.16
2018-09-20T14:30:54.667Z,47.46
2018-09-20T14:33:22.340Z,46.24
2018-09-20T14:35:49.995Z,45.69
2018-09-20T14:38:17.661Z,45.84
2018-09-20T14:40:45.280Z,46.18
2018-09-20T14:43:13.137Z,47.29
2018-09-20T14:45:41.345Z,47.24
2018-09-20T14:48:08.979Z,47.71
2018-09-20T14:50:36.697Z,47.05
2018-09-20T14:53:04.493Z,46.94
2018-09-20T14:55:32.644Z,46.18
2018-09-20T14:58:00.340Z,45.49
2018-09-20T15:00:28.445Z,45.10
2018-09-20T15:02:56.181Z,45.44
2018-09-20T15:05:24.000Z,45.20
2018-09-20T15:07:51.677Z,44.88
2018-09-20T15:10:19.623Z,45.13
2018-09-20T15:12:48.154Z,45.46
2018-09-20T15:15:16.647Z,44.77
2018-09-20T15:17:44.255Z,45.20
2018-09-20T15:20:11.907Z,44.95
2018-09-20T15:22:39.882Z,45.95
2018-09-20T15:25:07.840Z,46.12
2018-09-20T15:27:35.459Z,45.22
2018-09-20T15:30:03.228Z,46.62
2018-09-20T15:32:31.387Z,46.40
2018-09-20T15:34:59.060Z,45.72
2018-09-20T15:37:27.334Z,46.33
2018-09-20T15:39:56.000Z,46.36
2018-09-20T15:42:23.675Z,46.23
2018-09-20T15:44:51.292Z,46.49
2018-09-20T15:47:19.490Z,45.98
2018-09-20T15:49:47.470Z,46.18
2018-09-20T15:52:15.129Z,46.33
2018-09-20T15:54:43.149Z,46.51
2018-09-20T15:57:10.753Z,46.68
2018-09-20T15:59:38.433Z,46.65
2018-09-20T16:02:08.721Z,47.19
2018-09-20T16:04:36.328Z,46.92
2018-09-20T16:07:04.425Z,47.23
2018-09-20T16:09:32.023Z,47.78
2018-09-20T16:11:59.984Z,48.20
2018-09-20T16:14:28.022Z,48.09
2018-09-20T16:16:55.702Z,47.37
2018-09-20T16:19:23.360Z,48.06
2018-09-20T16:21:51.274Z,47.42
2018-09-20T16:24:19.205Z,47.92
2018-09-20T16:26:46.962Z,47.18
2018-09-20T16:29:26.821Z,47.45
2018-09-20T16:32:06.410Z,48.16
2018-09-20T16:34:44.874Z,47.68
2018-09-20T16:37:38.314Z,47.61
2018-09-20T16:40:08.332Z,48.69
2018-09-20T16:42:39.645Z,48.42
2018-09-20T16:45:07.519Z,48.22
2018-09-20T16:47:35.134Z,48.82
2018-09-20T16:50:02.829Z,49.07
2018-09-20T16:52:30.464Z,49.01
2018-09-20T16:54:58.741Z,48.29
2018-09-20T16:57:27.042Z,49.14
2018-09-20T16:59:54.794Z,49.16
2018-09-20T17:02:22.773Z,48.71
2018-09-20T17:04:50.782Z,49.11
2018-09-20T17:07:18.835Z,49.59
2018-09-20T17:09:46.786Z,50.29
2018-09-20T17:12:14.565Z,50.28
2018-09-20T17:14:42.641Z,50.82
2018-09-20T17:17:10.270Z,51.67
2018-09-20T17:19:37.916Z,50.73
2018-09-20T17:22:05.646Z,50.88
2018-09-20T17:24:33.335Z,51.11
2018-09-20T17:27:01.341Z,51.24
2018-09-20T17:29:29.317Z,52.30
2018-09-20T17:31:58.343Z,51.29
2018-09-20T17:34:26.762Z,51.00
2018-09-20T17:36:55.957Z,51.23
2018-09-20T17:39:24.982Z,51.50
2018-09-20T17:41:53.746Z,51.25
2018-09-20T17:44:21.403Z,51.29
2018-09-20T17:46:49.219Z,50.88
2018-09-20T17:49:16.927Z,51.33
2018-09-20T17:51:44.793Z,51.73
2018-09-20T17:54:15.378Z,51.29
2018-09-20T17:56:43.667Z,51.62
2018-09-20T17:59:11.513Z,51.08
2018-09-20T18:01:39.742Z,51.38
2018-09-20T18:04:08.487Z,51.22
2018-09-20T18:06:36.415Z,51.19
2018-09-20T18:09:06.931Z,52.01
2018-09-20T18:11:35.779Z,52.22
2018-09-20T18:14:05.670Z,52.14
2018-09-20T18:16:52.792Z,52.49
2018-09-20T18:19:20.404Z,51.36
2018-09-20T18:21:48.167Z,52.23
2018-09-20T18:24:47.381Z,51.61
2018-09-20T18:27:15.375Z,51.46
2018-09-20T18:29:43.228Z,52.30
2018-09-20T18:32:10.835Z,52.28
2018-09-20T18:34:38.786Z,52.28
2018-09-20T18:37:06.935Z,52.50
2018-09-20T18:39:35.173Z,52.27
2018-09-20T18:42:02.842Z,52.50
2018-09-20T18:44:30.577Z,51.86
2018-09-20T18:46:58.242Z,51.66
2018-09-20T18:49:26.456Z,51.63
2018-09-20T18:51:54.303Z,52.32
2018-09-20T18:54:22.464Z,52.11
2018-09-20T18:56:50.105Z,52.17
2018-09-20T18:59:17.778Z,52.08
2018-09-20T19:01:45.740Z,52.76
2018-09-20T19:04:13.410Z,52.81
2018-09-20T19:06:41.457Z,52.92
2018-09-20T19:09:09.383Z,52.40
2018-09-20T19:11:37.153Z,52.95
2018-09-20T19:14:04.873Z,53.20
2018-09-20T19:16:32.910Z,53.20
2018-09-20T19:19:00.904Z,53.01
2018-09-20T19:21:28.548Z,52.61
2018-09-20T19:23:56.364Z,53.11
2018-09-20T19:26:24.102Z,53.36
2018-09-20T19:28:52.177Z,53.11
2018-09-20T19:31:20.067Z,52.74
2018-09-20T19:33:48.085Z,52.98
2018-09-20T19:36:16.549Z,53.03
2018-09-20T19:38:44.265Z,53.47
2018-09-20T19:41:12.258Z,52.94
2018-09-20T19:43:40.201Z,52.84
2018-09-20T19:46:10.088Z,53.73
2018-09-20T19:48:38.941Z,53.04
2018-09-20T19:51:08.522Z,53.54
2018-09-20T19:53:36.209Z,53.10
2018-09-20T19:56:05.486Z,53.90
2018-09-20T19:58:34.489Z,53.21
2018-09-20T20:01:02.425Z,53.23
2018-09-20T20:03:36.807Z,53.17
2018-09-20T20:06:06.121Z,53.13
2018-09-20T20:08:34.956Z,53.78
2018-09-20T20:11:04.509Z,53.61
2018-09-20T20:13:35.351Z,52.96
2018-09-20T20:16:07.806Z,53.16
2018-09-20T20:18:36.442Z,53.49
2018-09-20T20:21:04.404Z,53.26
2018-09-20T20:23:37.699Z,53.71
2018-09-20T20:26:06.533Z,53.17
2018-09-20T20:28:38.354Z,53.74
2018-09-20T20:31:09.397Z,53.25
2018-09-20T20:33:39.029Z,53.84
2018-09-20T20:36:06.874Z,53.28
2018-09-20T20:38:36.625Z,53.88
2018-09-20T20:41:04.390Z,53.85
2018-09-20T20:43:32.033Z,53.29
2018-09-20T20:46:01.895Z,53.36
2018-09-20T20:48:29.553Z,53.42
2018-09-20T20:50:57.196Z,54.24
2018-09-20T20:53:25.412Z,53.22
2018-09-20T20:55:53.193Z,53.37
2018-09-20T20:58:20.918Z,53.39
2018-09-20T21:00:48.640Z,53.27
2018-09-20T21:03:19.772Z,53.16
2018-09-20T21:05:47.742Z,53.92
2018-09-20T21:08:15.822Z,53.18
2018-09-20T21:10:43.545Z,53.12
2018-09-20T21:13:11.160Z,53.29
2018-09-20T21:15:41.110Z,53.78
2018-09-20T21:18:11.768Z,53.82
2018-09-20T21:20:40.369Z,53.37
2018-09-20T21:23:09.017Z,53.44
2018-09-20T21:25:36.683Z,53.15
2018-09-20T21:28:05.017Z,53.06
2018-09-20T21:30:32.982Z,53.31
2018-09-20T21:33:00.657Z,53.12
2018-09-20T21:35:28.351Z,53.65
2018-09-20T21:37:56.143Z,53.67
2018-09-20T21:40:24.171Z,53.31
2018-09-20T21:42:51.823Z,53.56
2018-09-20T21:45:19.692Z,52.72
2018-09-20T21:47:47.672Z,52.98
2018-09-20T21:50:15.839Z,53.67
2018-09-20T21:52:43.489Z,52.79
2018-09-20T21:55:11.450Z,53.40
2018-09-20T21:57:39.138Z,52.75
2018-09-20T22:00:07.026Z,52.57
2018-09-20T22:02:40.434Z,53.24
2018-09-20T22:05:08.209Z,52.65
2018-09-20T22:07:36.160Z,53.32
2018-09-20T22:10:04.126Z,52.73
2018-09-20T22:12:31.765Z,52.98
2018-09-20T22:14:59.499Z,53.41
2018-09-20T22:17:27.137Z,52.74
2018-09-20T22:19:55.302Z,53.32
2018-09-20T22:22:23.116Z,52.84
2018-09-20T22:24:51.072Z,52.55
2018-09-20T22:27:18.780Z,53.33
2018-09-20T22:29:46.608Z,53.14
2018-09-20T22:32:14.660Z,53.43
2018-09-20T22:34:42.302Z,53.83
2018-09-20T22:37:09.980Z,52.90
2018-09-20T22:39:38.461Z,53.09
2018-09-20T22:42:06.486Z,53.52
2018-09-20T22:44:34.147Z,53.01
2018-09-20T22:49:30.490Z,53.82
2018-09-20T22:51:58.733Z,53.38
2018-09-20T22:54:27.103Z,52.95
2018-09-20T22:56:56.001Z,52.86
2018-09-20T22:59:24.058Z,52.84
2018-09-20T23:01:52.195Z,52.99
2018-09-20T23:04:20.189Z,53.24
2018-09-20T23:06:48.315Z,53.25
2018-09-20T23:09:16.501Z,53.42
2018-09-20T23:11:45.243Z,53.53
2018-09-20T23:14:13.804Z,54.08
2018-09-20T23:16:42.142Z,53.57
2018-09-20T23:19:09.828Z,54.41
2018-09-20T23:21:37.942Z,54.26
2018-09-20T23:24:05.706Z,54.52
2018-09-20T23:26:33.371Z,54.51
2018-09-20T23:29:01.068Z,53.62
2018-09-20T23:31:28.769Z,53.67
2018-09-20T23:33:56.434Z,54.39
2018-09-20T23:36:24.425Z,54.34
2018-09-20T23:38:52.468Z,53.56
2018-09-20T23:41:20.165Z,53.48
2018-09-20T23:43:48.122Z,53.67
2018-09-20T23:46:15.816Z,53.73
2018-09-20T23:48:43.808Z,53.96
2018-09-20T23:51:11.779Z,54.80
2018-09-20T23:53:39.398Z,54.73
2018-09-20T23:56:07.023Z,54.18
2018-09-20T23:58:34.735Z,54.43
